sensor_id;sensor_type;location;lat;lon;timestamp;P1;durP1;ratioP1;P2;durP2;ratioP2
7080;SDS011;3582;51.506;11.948;2023-05-19T00:00:41;8.97;;;6.70;;
7080;SDS011;3582;51.506;11.948;2023-05-19T00:03:11;8.87;;;6.83;;
7080;SDS011;3582;51.506;11.948;2023-05-19T00:05:38;11.33;;;6.37;;
7080;SDS011;3582;51.506;11.948;2023-05-19T00:08:09;6.50;;;5.83;;
7080;SDS011;3582;51.506;11.948;2023-05-19T00:10:36;6.43;;;5.77;;
7080;SDS011;3582;51.506;11.948;2023-05-19T00:13:03;6.50;;;5.90;;
7080;SDS011;3582;51.506;11.948;2023-05-19T00:15:29;9.53;;;5.90;;
7080;SDS011;3582;51.506;11.948;2023-05-19T00:17:55;9.77;;;5.60;;
7080;SDS011;3582;51.506;11.948;2023-05-19T00:20:21;6.73;;;5.90;;
7080;SDS011;3582;51.506;11.948;2023-05-19T00:22:47;8.97;;;7.63;;
7080;SDS011;3582;51.506;11.948;2023-05-19T00:25:15;7.40;;;5.75;;
7080;SDS011;3582;51.506;11.948;2023-05-19T00:27:40;7.50;;;5.77;;
7080;SDS011;3582;51.506;11.948;2023-05-19T00:30:06;8.80;;;6.00;;
7080;SDS011;3582;51.506;11.948;2023-05-19T00:32:33;5.60;;;5.10;;
7080;SDS011;3582;51.506;11.948;2023-05-19T00:34:59;8.07;;;4.88;;
7080;SDS011;3582;51.506;11.948;2023-05-19T00:37:25;7.93;;;4.90;;
7080;SDS011;3582;51.506;11.948;2023-05-19T00:39:51;4.20;;;3.90;;
7080;SDS011;3582;51.506;11.948;2023-05-19T00:42:17;7.00;;;5.13;;
7080;SDS011;3582;51.506;11.948;2023-05-19T00:44:43;7.40;;;4.60;;
7080;SDS011;3582;51.506;11.948;2023-05-19T00:47:09;5.83;;;5.10;;
7080;SDS011;3582;51.506;11.948;2023-05-19T00:49:35;5.70;;;5.20;;
7080;SDS011;3582;51.506;11.948;2023-05-19T00:52:01;4.90;;;4.50;;
7080;SDS011;3582;51.506;11.948;2023-05-19T00:54:27;6.13;;;5.10;;
7080;SDS011;3582;51.506;11.948;2023-05-19T00:56:54;4.70;;;4.30;;
7080;SDS011;3582;51.506;11.948;2023-05-19T00:59:22;6.50;;;4.10;;
7080;SDS011;3582;51.506;11.948;2023-05-19T01:01:48;5.83;;;4.60;;
7080;SDS011;3582;51.506;11.948;2023-05-19T01:04:15;6.65;;;4.65;;
7080;SDS011;3582;51.506;11.948;2023-05-19T01:06:41;5.68;;;4.65;;
7080;SDS011;3582;51.506;11.948;2023-05-19T01:09:07;5.43;;;4.90;;
7080;SDS011;3582;51.506;11.948;2023-05-19T01:11:33;7.93;;;4.90;;
7080;SDS011;3582;51.506;11.948;2023-05-19T01:13:59;6.13;;;4.93;;
7080;SDS011;3582;51.506;11.948;2023-05-19T01:31:55;7.80;;;4.38;;
7080;SDS011;3582;51.506;11.948;2023-05-19T01:34:23;6.75;;;5.90;;
7080;SDS011;3582;51.506;11.948;2023-05-19T01:36:51;6.15;;;4.50;;
7080;SDS011;3582;51.506;11.948;2023-05-19T01:39:18;8.00;;;4.53;;
7080;SDS011;3582;51.506;11.948;2023-05-19T01:41:44;4.53;;;4.23;;
7080;SDS011;3582;51.506;11.948;2023-05-19T01:44:11;11.50;;;5.07;;
7080;SDS011;3582;51.506;11.948;2023-05-19T01:46:37;6.40;;;4.97;;
7080;SDS011;3582;51.506;11.948;2023-05-19T01:49:04;4.35;;;4.05;;
7080;SDS011;3582;51.506;11.948;2023-05-19T01:51:32;6.07;;;4.70;;
7080;SDS011;3582;51.506;11.948;2023-05-19T01:53:58;6.45;;;5.22;;
7080;SDS011;3582;51.506;11.948;2023-05-19T01:56:32;6.38;;;4.60;;
7080;SDS011;3582;51.506;11.948;2023-05-19T01:59:02;6.50;;;5.07;;
7080;SDS011;3582;51.506;11.948;2023-05-19T02:01:36;6.38;;;4.55;;
7080;SDS011;3582;51.506;11.948;2023-05-19T02:04:24;5.60;;;4.50;;
7080;SDS011;3582;51.506;11.948;2023-05-19T02:07:00;5.70;;;5.10;;
7080;SDS011;3582;51.506;11.948;2023-05-19T02:09:38;4.93;;;4.38;;
7080;SDS011;3582;51.506;11.948;2023-05-19T02:17:12;11.18;;;7.07;;
7080;SDS011;3582;51.506;11.948;2023-05-19T02:19:39;6.97;;;4.90;;
7080;SDS011;3582;51.506;11.948;2023-05-19T02:22:05;6.00;;;5.47;;
7080;SDS011;3582;51.506;11.948;2023-05-19T02:24:31;5.10;;;4.70;;
7080;SDS011;3582;51.506;11.948;2023-05-19T02:26:57;7.07;;;5.17;;
7080;SDS011;3582;51.506;11.948;2023-05-19T02:29:23;5.35;;;4.82;;
7080;SDS011;3582;51.506;11.948;2023-05-19T02:31:49;8.73;;;4.88;;
7080;SDS011;3582;51.506;11.948;2023-05-19T02:34:15;6.83;;;6.13;;
7080;SDS011;3582;51.506;11.948;2023-05-19T02:36:41;6.13;;;4.80;;
7080;SDS011;3582;51.506;11.948;2023-05-19T02:39:08;7.80;;;5.82;;
7080;SDS011;3582;51.506;11.948;2023-05-19T02:41:37;7.82;;;4.70;;
7080;SDS011;3582;51.506;11.948;2023-05-19T02:44:03;6.70;;;5.07;;
7080;SDS011;3582;51.506;11.948;2023-05-19T02:46:29;7.50;;;4.70;;
7080;SDS011;3582;51.506;11.948;2023-05-19T02:48:55;9.60;;;5.80;;
7080;SDS011;3582;51.506;11.948;2023-05-19T02:51:21;7.77;;;4.97;;
7080;SDS011;3582;51.506;11.948;2023-05-19T02:53:47;4.97;;;4.57;;
7080;SDS011;3582;51.506;11.948;2023-05-19T02:56:13;7.80;;;5.17;;
7080;SDS011;3582;51.506;11.948;2023-05-19T02:58:39;12.17;;;5.40;;
7080;SDS011;3582;51.506;11.948;2023-05-19T03:01:07;6.65;;;5.28;;
7080;SDS011;3582;51.506;11.948;2023-05-19T03:03:33;5.50;;;4.15;;
7080;SDS011;3582;51.506;11.948;2023-05-19T03:05:59;8.83;;;5.13;;
7080;SDS011;3582;51.506;11.948;2023-05-19T03:08:25;7.68;;;5.80;;
7080;SDS011;3582;51.506;11.948;2023-05-19T03:10:51;5.45;;;4.95;;
7080;SDS011;3582;51.506;11.948;2023-05-19T03:13:17;8.13;;;5.00;;
7080;SDS011;3582;51.506;11.948;2023-05-19T03:15:43;13.03;;;6.00;;
7080;SDS011;3582;51.506;11.948;2023-05-19T03:18:09;6.07;;;4.38;;
7080;SDS011;3582;51.506;11.948;2023-05-19T03:20:38;11.75;;;6.22;;
7080;SDS011;3582;51.506;11.948;2023-05-19T03:23:06;8.45;;;5.00;;
7080;SDS011;3582;51.506;11.948;2023-05-19T03:25:33;5.20;;;4.70;;
7080;SDS011;3582;51.506;11.948;2023-05-19T03:27:58;7.60;;;5.00;;
7080;SDS011;3582;51.506;11.948;2023-05-19T03:30:25;8.80;;;4.82;;
7080;SDS011;3582;51.506;11.948;2023-05-19T03:32:51;9.43;;;6.73;;
7080;SDS011;3582;51.506;11.948;2023-05-19T03:35:17;10.33;;;6.43;;
7080;SDS011;3582;51.506;11.948;2023-05-19T03:37:43;4.28;;;3.92;;
7080;SDS011;3582;51.506;11.948;2023-05-19T03:40:09;6.10;;;4.20;;
7080;SDS011;3582;51.506;11.948;2023-05-19T03:42:35;5.32;;;4.15;;
7080;SDS011;3582;51.506;11.948;2023-05-19T03:45:01;9.37;;;4.60;;
7080;SDS011;3582;51.506;11.948;2023-05-19T03:47:27;6.18;;;3.90;;
7080;SDS011;3582;51.506;11.948;2023-05-19T03:49:53;5.93;;;4.40;;
7080;SDS011;3582;51.506;11.948;2023-05-19T03:52:19;6.13;;;4.20;;
7080;SDS011;3582;51.506;11.948;2023-05-19T03:54:45;5.30;;;4.60;;
7080;SDS011;3582;51.506;11.948;2023-05-19T03:57:12;7.00;;;4.40;;
7080;SDS011;3582;51.506;11.948;2023-05-19T03:59:38;8.02;;;4.90;;
7080;SDS011;3582;51.506;11.948;2023-05-19T04:02:05;17.13;;;5.45;;
7080;SDS011;3582;51.506;11.948;2023-05-19T04:04:31;9.25;;;3.97;;
7080;SDS011;3582;51.506;11.948;2023-05-19T04:06:57;4.57;;;4.13;;
7080;SDS011;3582;51.506;11.948;2023-05-19T04:09:23;4.50;;;4.15;;
7080;SDS011;3582;51.506;11.948;2023-05-19T04:11:49;5.17;;;4.67;;
7080;SDS011;3582;51.506;11.948;2023-05-19T04:14:15;9.43;;;5.00;;
7080;SDS011;3582;51.506;11.948;2023-05-19T04:16:41;7.83;;;3.60;;
7080;SDS011;3582;51.506;11.948;2023-05-19T04:19:07;8.00;;;4.17;;
7080;SDS011;3582;51.506;11.948;2023-05-19T04:21:32;9.23;;;4.27;;
7080;SDS011;3582;51.506;11.948;2023-05-19T04:23:58;27.10;;;4.90;;
7080;SDS011;3582;51.506;11.948;2023-05-19T04:26:25;10.70;;;4.50;;
7080;SDS011;3582;51.506;11.948;2023-05-19T04:28:54;6.38;;;4.35;;
7080;SDS011;3582;51.506;11.948;2023-05-19T04:31:20;5.37;;;4.23;;
7080;SDS011;3582;51.506;11.948;2023-05-19T04:33:46;13.52;;;5.03;;
7080;SDS011;3582;51.506;11.948;2023-05-19T04:36:13;7.00;;;4.03;;
7080;SDS011;3582;51.506;11.948;2023-05-19T04:38:41;4.80;;;4.30;;
7080;SDS011;3582;51.506;11.948;2023-05-19T04:41:07;11.77;;;5.05;;
7080;SDS011;3582;51.506;11.948;2023-05-19T04:43:35;6.15;;;3.92;;
7080;SDS011;3582;51.506;11.948;2023-05-19T04:46:05;6.43;;;4.40;;
7080;SDS011;3582;51.506;11.948;2023-05-19T04:48:31;6.40;;;4.20;;
7080;SDS011;3582;51.506;11.948;2023-05-19T04:50:57;7.70;;;4.27;;
7080;SDS011;3582;51.506;11.948;2023-05-19T04:53:25;7.88;;;4.32;;
7080;SDS011;3582;51.506;11.948;2023-05-19T04:55:52;4.70;;;4.15;;
7080;SDS011;3582;51.506;11.948;2023-05-19T04:58:18;8.83;;;4.83;;
7080;SDS011;3582;51.506;11.948;2023-05-19T05:00:44;15.50;;;5.60;;
7080;SDS011;3582;51.506;11.948;2023-05-19T05:03:10;8.20;;;4.40;;
7080;SDS011;3582;51.506;11.948;2023-05-19T05:05:38;7.60;;;4.33;;
7080;SDS011;3582;51.506;11.948;2023-05-19T05:08:04;6.78;;;4.30;;
7080;SDS011;3582;51.506;11.948;2023-05-19T05:10:31;7.50;;;4.90;;
7080;SDS011;3582;51.506;11.948;2023-05-19T05:12:57;4.50;;;4.10;;
7080;SDS011;3582;51.506;11.948;2023-05-19T05:15:24;5.83;;;5.23;;
7080;SDS011;3582;51.506;11.948;2023-05-19T05:17:52;5.35;;;4.10;;
7080;SDS011;3582;51.506;11.948;2023-05-19T05:20:18;8.33;;;3.80;;
7080;SDS011;3582;51.506;11.948;2023-05-19T05:22:45;6.87;;;4.97;;
7080;SDS011;3582;51.506;11.948;2023-05-19T05:25:11;4.47;;;4.07;;
7080;SDS011;3582;51.506;11.948;2023-05-19T05:27:37;5.20;;;3.80;;
7080;SDS011;3582;51.506;11.948;2023-05-19T05:30:03;6.67;;;4.03;;
7080;SDS011;3582;51.506;11.948;2023-05-19T05:32:29;4.07;;;3.60;;
7080;SDS011;3582;51.506;11.948;2023-05-19T05:34:55;4.73;;;3.80;;
7080;SDS011;3582;51.506;11.948;2023-05-19T05:37:21;6.30;;;4.23;;
7080;SDS011;3582;51.506;11.948;2023-05-19T05:39:47;5.93;;;3.80;;
7080;SDS011;3582;51.506;11.948;2023-05-19T05:42:13;7.13;;;4.53;;
7080;SDS011;3582;51.506;11.948;2023-05-19T05:44:40;5.13;;;3.73;;
7080;SDS011;3582;51.506;11.948;2023-05-19T05:47:06;7.40;;;3.70;;
7080;SDS011;3582;51.506;11.948;2023-05-19T05:49:32;4.83;;;4.23;;
7080;SDS011;3582;51.506;11.948;2023-05-19T05:52:02;4.97;;;3.87;;
7080;SDS011;3582;51.506;11.948;2023-05-19T05:54:28;7.50;;;4.47;;
7080;SDS011;3582;51.506;11.948;2023-05-19T05:56:54;8.63;;;4.03;;
7080;SDS011;3582;51.506;11.948;2023-05-19T05:59:20;8.03;;;4.50;;
7080;SDS011;3582;51.506;11.948;2023-05-19T06:01:46;4.77;;;3.77;;
7080;SDS011;3582;51.506;11.948;2023-05-19T06:04:12;6.83;;;4.40;;
7080;SDS011;3582;51.506;11.948;2023-05-19T06:06:38;5.27;;;3.77;;
7080;SDS011;3582;51.506;11.948;2023-05-19T06:09:05;3.60;;;3.30;;
7080;SDS011;3582;51.506;11.948;2023-05-19T06:11:31;4.17;;;3.73;;
7080;SDS011;3582;51.506;11.948;2023-05-19T06:13:57;9.80;;;5.70;;
7080;SDS011;3582;51.506;11.948;2023-05-19T06:16:23;4.00;;;3.60;;
7080;SDS011;3582;51.506;11.948;2023-05-19T06:18:48;8.50;;;4.77;;
7080;SDS011;3582;51.506;11.948;2023-05-19T06:21:14;5.83;;;3.40;;
7080;SDS011;3582;51.506;11.948;2023-05-19T06:23:41;4.43;;;3.63;;
7080;SDS011;3582;51.506;11.948;2023-05-19T06:26:08;8.63;;;4.30;;
7080;SDS011;3582;51.506;11.948;2023-05-19T06:28:34;5.20;;;3.60;;
7080;SDS011;3582;51.506;11.948;2023-05-19T06:30:59;9.00;;;4.43;;
7080;SDS011;3582;51.506;11.948;2023-05-19T06:33:25;5.40;;;4.77;;
7080;SDS011;3582;51.506;11.948;2023-05-19T06:35:51;3.77;;;3.47;;
7080;SDS011;3582;51.506;11.948;2023-05-19T06:38:17;7.10;;;4.00;;
7080;SDS011;3582;51.506;11.948;2023-05-19T06:40:43;6.53;;;4.60;;
7080;SDS011;3582;51.506;11.948;2023-05-19T06:43:09;3.73;;;3.37;;
7080;SDS011;3582;51.506;11.948;2023-05-19T06:45:35;3.80;;;3.50;;
7080;SDS011;3582;51.506;11.948;2023-05-19T06:48:01;4.80;;;4.47;;
7080;SDS011;3582;51.506;11.948;2023-05-19T06:50:27;6.07;;;4.00;;
7080;SDS011;3582;51.506;11.948;2023-05-19T06:52:53;11.20;;;5.10;;
7080;SDS011;3582;51.506;11.948;2023-05-19T06:55:21;9.43;;;4.20;;
7080;SDS011;3582;51.506;11.948;2023-05-19T06:57:47;5.10;;;3.93;;
7080;SDS011;3582;51.506;11.948;2023-05-19T07:00:12;6.93;;;3.80;;
7080;SDS011;3582;51.506;11.948;2023-05-19T07:02:39;7.83;;;3.80;;
7080;SDS011;3582;51.506;11.948;2023-05-19T07:05:04;4.53;;;4.00;;
7080;SDS011;3582;51.506;11.948;2023-05-19T07:07:32;4.23;;;3.83;;
7080;SDS011;3582;51.506;11.948;2023-05-19T07:09:57;6.80;;;3.70;;
7080;SDS011;3582;51.506;11.948;2023-05-19T07:12:23;10.83;;;6.83;;
7080;SDS011;3582;51.506;11.948;2023-05-19T07:14:50;4.27;;;3.97;;
7080;SDS011;3582;51.506;11.948;2023-05-19T07:17:16;4.90;;;4.37;;
7080;SDS011;3582;51.506;11.948;2023-05-19T07:19:42;6.77;;;3.77;;
7080;SDS011;3582;51.506;11.948;2023-05-19T07:22:08;7.10;;;3.40;;
7080;SDS011;3582;51.506;11.948;2023-05-19T07:24:34;7.87;;;4.70;;
7080;SDS011;3582;51.506;11.948;2023-05-19T07:27:00;8.33;;;5.57;;
7080;SDS011;3582;51.506;11.948;2023-05-19T07:29:26;3.87;;;3.57;;
7080;SDS011;3582;51.506;11.948;2023-05-19T07:31:52;6.03;;;4.37;;
7080;SDS011;3582;51.506;11.948;2023-05-19T07:34:21;4.30;;;3.97;;
7080;SDS011;3582;51.506;11.948;2023-05-19T07:36:47;9.77;;;4.60;;
7080;SDS011;3582;51.506;11.948;2023-05-19T07:39:13;6.70;;;4.00;;
7080;SDS011;3582;51.506;11.948;2023-05-19T07:41:39;4.40;;;3.47;;
7080;SDS011;3582;51.506;11.948;2023-05-19T07:44:05;3.80;;;3.40;;
7080;SDS011;3582;51.506;11.948;2023-05-19T07:46:32;4.40;;;3.43;;
7080;SDS011;3582;51.506;11.948;2023-05-19T07:48:58;6.87;;;3.77;;
7080;SDS011;3582;51.506;11.948;2023-05-19T07:51:24;3.93;;;3.57;;
7080;SDS011;3582;51.506;11.948;2023-05-19T07:53:50;5.20;;;3.67;;
7080;SDS011;3582;51.506;11.948;2023-05-19T07:56:16;3.70;;;3.40;;
7080;SDS011;3582;51.506;11.948;2023-05-19T07:58:42;4.43;;;4.13;;
7080;SDS011;3582;51.506;11.948;2023-05-19T08:01:08;5.77;;;3.53;;
7080;SDS011;3582;51.506;11.948;2023-05-19T08:03:34;5.80;;;3.70;;
7080;SDS011;3582;51.506;11.948;2023-05-19T08:06:00;8.47;;;3.70;;
7080;SDS011;3582;51.506;11.948;2023-05-19T08:08:27;6.17;;;3.60;;
7080;SDS011;3582;51.506;11.948;2023-05-19T08:10:53;3.90;;;2.70;;
7080;SDS011;3582;51.506;11.948;2023-05-19T08:13:18;4.40;;;3.67;;
7080;SDS011;3582;51.506;11.948;2023-05-19T08:15:44;5.47;;;4.50;;
7080;SDS011;3582;51.506;11.948;2023-05-19T08:18:10;3.33;;;3.03;;
7080;SDS011;3582;51.506;11.948;2023-05-19T08:20:36;4.10;;;3.80;;
7080;SDS011;3582;51.506;11.948;2023-05-19T08:23:02;4.43;;;3.37;;
7080;SDS011;3582;51.506;11.948;2023-05-19T08:25:28;4.47;;;3.13;;
7080;SDS011;3582;51.506;11.948;2023-05-19T08:27:54;11.17;;;5.47;;
7080;SDS011;3582;51.506;11.948;2023-05-19T08:30:20;3.37;;;3.07;;
7080;SDS011;3582;51.506;11.948;2023-05-19T08:32:46;5.20;;;4.20;;
7080;SDS011;3582;51.506;11.948;2023-05-19T08:35:12;3.40;;;3.10;;
7080;SDS011;3582;51.506;11.948;2023-05-19T08:37:38;4.10;;;3.00;;
7080;SDS011;3582;51.506;11.948;2023-05-19T08:40:05;4.47;;;3.47;;
7080;SDS011;3582;51.506;11.948;2023-05-19T08:42:32;3.50;;;3.27;;
7080;SDS011;3582;51.506;11.948;2023-05-19T08:44:59;2.87;;;2.00;;
7080;SDS011;3582;51.506;11.948;2023-05-19T08:47:25;3.77;;;3.10;;
7080;SDS011;3582;51.506;11.948;2023-05-19T08:49:52;2.70;;;2.50;;
7080;SDS011;3582;51.506;11.948;2023-05-19T08:52:22;2.10;;;1.90;;
7080;SDS011;3582;51.506;11.948;2023-05-19T08:54:54;4.57;;;2.70;;
7080;SDS011;3582;51.506;11.948;2023-05-19T08:57:24;3.40;;;2.50;;
7080;SDS011;3582;51.506;11.948;2023-05-19T08:59:50;2.50;;;2.30;;
7080;SDS011;3582;51.506;11.948;2023-05-19T09:02:16;1.90;;;1.77;;
7080;SDS011;3582;51.506;11.948;2023-05-19T09:04:43;4.07;;;2.47;;
7080;SDS011;3582;51.506;11.948;2023-05-19T09:07:12;4.13;;;3.83;;
7080;SDS011;3582;51.506;11.948;2023-05-19T09:09:38;4.00;;;3.20;;
7080;SDS011;3582;51.506;11.948;2023-05-19T09:12:07;5.50;;;2.80;;
7080;SDS011;3582;51.506;11.948;2023-05-19T09:14:34;3.20;;;1.87;;
7080;SDS011;3582;51.506;11.948;2023-05-19T09:17:00;3.43;;;2.70;;
7080;SDS011;3582;51.506;11.948;2023-05-19T09:19:29;6.10;;;4.20;;
7080;SDS011;3582;51.506;11.948;2023-05-19T09:21:59;3.57;;;2.40;;
7080;SDS011;3582;51.506;11.948;2023-05-19T09:24:27;2.33;;;2.13;;
7080;SDS011;3582;51.506;11.948;2023-05-19T09:26:56;2.93;;;2.63;;
7080;SDS011;3582;51.506;11.948;2023-05-19T09:29:22;6.60;;;3.00;;
7080;SDS011;3582;51.506;11.948;2023-05-19T09:31:49;3.03;;;2.47;;
7080;SDS011;3582;51.506;11.948;2023-05-19T09:34:15;2.33;;;2.13;;
7080;SDS011;3582;51.506;11.948;2023-05-19T09:36:41;2.20;;;2.00;;
7080;SDS011;3582;51.506;11.948;2023-05-19T09:39:17;2.77;;;2.53;;
7080;SDS011;3582;51.506;11.948;2023-05-19T09:41:44;2.40;;;2.20;;
7080;SDS011;3582;51.506;11.948;2023-05-19T09:46:51;3.47;;;1.90;;
7080;SDS011;3582;51.506;11.948;2023-05-19T09:49:19;3.80;;;2.33;;
7080;SDS011;3582;51.506;11.948;2023-05-19T09:51:47;2.77;;;2.13;;
7080;SDS011;3582;51.506;11.948;2023-05-19T09:54:13;1.90;;;1.63;;
7080;SDS011;3582;51.506;11.948;2023-05-19T09:56:40;3.27;;;2.80;;
7080;SDS011;3582;51.506;11.948;2023-05-19T09:59:06;2.23;;;2.03;;
7080;SDS011;3582;51.506;11.948;2023-05-19T10:01:32;2.83;;;2.57;;
7080;SDS011;3582;51.506;11.948;2023-05-19T10:04:00;15.53;;;2.43;;
7080;SDS011;3582;51.506;11.948;2023-05-19T10:06:26;21.73;;;2.93;;
7080;SDS011;3582;51.506;11.948;2023-05-19T10:08:52;3.13;;;2.17;;
7080;SDS011;3582;51.506;11.948;2023-05-19T10:11:19;3.30;;;2.43;;
7080;SDS011;3582;51.506;11.948;2023-05-19T10:13:45;2.33;;;2.13;;
7080;SDS011;3582;51.506;11.948;2023-05-19T10:16:11;2.40;;;2.20;;
7080;SDS011;3582;51.506;11.948;2023-05-19T10:18:40;2.20;;;2.00;;
7080;SDS011;3582;51.506;11.948;2023-05-19T10:21:06;7.67;;;2.90;;
7080;SDS011;3582;51.506;11.948;2023-05-19T10:23:33;2.97;;;2.77;;
7080;SDS011;3582;51.506;11.948;2023-05-19T10:25:59;2.60;;;2.40;;
7080;SDS011;3582;51.506;11.948;2023-05-19T10:28:33;2.20;;;2.10;;
7080;SDS011;3582;51.506;11.948;2023-05-19T10:31:00;5.13;;;1.70;;
7080;SDS011;3582;51.506;11.948;2023-05-19T10:34:12;6.87;;;3.20;;
7080;SDS011;3582;51.506;11.948;2023-05-19T10:36:32;3.37;;;2.57;;
7080;SDS011;3582;51.506;11.948;2023-05-19T10:39:05;2.43;;;2.00;;
7080;SDS011;3582;51.506;11.948;2023-05-19T10:41:36;3.03;;;2.20;;
7080;SDS011;3582;51.506;11.948;2023-05-19T10:46:42;3.07;;;2.50;;
7080;SDS011;3582;51.506;11.948;2023-05-19T10:49:08;2.50;;;2.37;;
7080;SDS011;3582;51.506;11.948;2023-05-19T10:51:34;7.00;;;1.77;;
7080;SDS011;3582;51.506;11.948;2023-05-19T10:54:01;3.27;;;2.13;;
7080;SDS011;3582;51.506;11.948;2023-05-19T10:56:28;4.10;;;2.07;;
7080;SDS011;3582;51.506;11.948;2023-05-19T10:58:56;9.73;;;2.87;;
7080;SDS011;3582;51.506;11.948;2023-05-19T11:01:22;2.60;;;2.30;;
7080;SDS011;3582;51.506;11.948;2023-05-19T11:03:54;2.23;;;2.03;;
7080;SDS011;3582;51.506;11.948;2023-05-19T11:06:26;4.13;;;1.80;;
7080;SDS011;3582;51.506;11.948;2023-05-19T11:08:53;2.10;;;2.00;;
7080;SDS011;3582;51.506;11.948;2023-05-19T11:11:20;5.00;;;2.50;;
7080;SDS011;3582;51.506;11.948;2023-05-19T11:13:46;8.90;;;2.87;;
7080;SDS011;3582;51.506;11.948;2023-05-19T11:16:13;5.23;;;2.90;;
7080;SDS011;3582;51.506;11.948;2023-05-19T11:18:39;3.30;;;3.00;;
7080;SDS011;3582;51.506;11.948;2023-05-19T11:21:05;3.40;;;3.10;;
7080;SDS011;3582;51.506;11.948;2023-05-19T11:23:36;4.20;;;1.97;;
7080;SDS011;3582;51.506;11.948;2023-05-19T11:26:04;3.57;;;2.17;;
7080;SDS011;3582;51.506;11.948;2023-05-19T11:28:32;3.33;;;2.23;;
7080;SDS011;3582;51.506;11.948;2023-05-19T11:30:58;2.40;;;2.23;;
7080;SDS011;3582;51.506;11.948;2023-05-19T11:33:26;4.70;;;2.50;;
7080;SDS011;3582;51.506;11.948;2023-05-19T11:35:52;2.13;;;1.77;;
7080;SDS011;3582;51.506;11.948;2023-05-19T11:38:19;2.80;;;2.20;;
7080;SDS011;3582;51.506;11.948;2023-05-19T11:40:46;2.40;;;2.23;;
7080;SDS011;3582;51.506;11.948;2023-05-19T11:43:13;2.60;;;2.40;;
7080;SDS011;3582;51.506;11.948;2023-05-19T11:45:40;4.67;;;2.80;;
7080;SDS011;3582;51.506;11.948;2023-05-19T11:48:09;3.67;;;2.60;;
7080;SDS011;3582;51.506;11.948;2023-05-19T11:50:36;2.63;;;1.90;;
7080;SDS011;3582;51.506;11.948;2023-05-19T11:53:02;3.03;;;2.13;;
7080;SDS011;3582;51.506;11.948;2023-05-19T11:55:28;1.97;;;1.87;;
7080;SDS011;3582;51.506;11.948;2023-05-19T12:00:26;14.60;;;3.40;;
7080;SDS011;3582;51.506;11.948;2023-05-19T12:02:52;2.10;;;2.00;;
7080;SDS011;3582;51.506;11.948;2023-05-19T12:05:22;3.07;;;1.97;;
7080;SDS011;3582;51.506;11.948;2023-05-19T12:07:49;2.43;;;2.20;;
7080;SDS011;3582;51.506;11.948;2023-05-19T12:10:25;3.87;;;2.43;;
7080;SDS011;3582;51.506;11.948;2023-05-19T12:12:52;2.43;;;2.33;;
7080;SDS011;3582;51.506;11.948;2023-05-19T12:15:18;3.60;;;2.03;;
7080;SDS011;3582;51.506;11.948;2023-05-19T12:17:48;4.10;;;2.70;;
7080;SDS011;3582;51.506;11.948;2023-05-19T12:20:14;2.83;;;2.63;;
7080;SDS011;3582;51.506;11.948;2023-05-19T12:22:40;2.77;;;2.30;;
7080;SDS011;3582;51.506;11.948;2023-05-19T12:25:06;6.03;;;2.70;;
7080;SDS011;3582;51.506;11.948;2023-05-19T12:27:34;2.43;;;2.30;;
7080;SDS011;3582;51.506;11.948;2023-05-19T12:30:01;3.37;;;3.00;;
7080;SDS011;3582;51.506;11.948;2023-05-19T12:32:27;2.70;;;2.50;;
7080;SDS011;3582;51.506;11.948;2023-05-19T12:34:56;4.50;;;3.10;;
7080;SDS011;3582;51.506;11.948;2023-05-19T12:37:26;2.90;;;2.70;;
7080;SDS011;3582;51.506;11.948;2023-05-19T12:39:54;4.30;;;3.27;;
7080;SDS011;3582;51.506;11.948;2023-05-19T12:42:20;5.90;;;3.23;;
7080;SDS011;3582;51.506;11.948;2023-05-19T12:44:48;7.13;;;3.27;;
7080;SDS011;3582;51.506;11.948;2023-05-19T12:47:15;3.70;;;2.83;;
7080;SDS011;3582;51.506;11.948;2023-05-19T12:49:59;3.13;;;2.80;;
7080;SDS011;3582;51.506;11.948;2023-05-19T12:52:26;2.27;;;2.17;;
7080;SDS011;3582;51.506;11.948;2023-05-19T12:55:00;2.60;;;2.40;;
7080;SDS011;3582;51.506;11.948;2023-05-19T12:57:26;3.23;;;3.03;;
7080;SDS011;3582;51.506;11.948;2023-05-19T13:02:34;2.90;;;2.60;;
7080;SDS011;3582;51.506;11.948;2023-05-19T13:05:00;4.33;;;2.67;;
7080;SDS011;3582;51.506;11.948;2023-05-19T13:07:26;4.47;;;2.50;;
7080;SDS011;3582;51.506;11.948;2023-05-19T13:09:53;4.00;;;3.00;;
7080;SDS011;3582;51.506;11.948;2023-05-19T13:12:18;3.20;;;2.57;;
7080;SDS011;3582;51.506;11.948;2023-05-19T13:14:45;2.93;;;2.73;;
7080;SDS011;3582;51.506;11.948;2023-05-19T13:17:10;4.00;;;3.20;;
7080;SDS011;3582;51.506;11.948;2023-05-19T13:19:36;4.30;;;2.73;;
7080;SDS011;3582;51.506;11.948;2023-05-19T13:22:02;5.20;;;3.13;;
7080;SDS011;3582;51.506;11.948;2023-05-19T13:24:28;8.93;;;2.60;;
7080;SDS011;3582;51.506;11.948;2023-05-19T13:26:54;3.47;;;3.17;;
7080;SDS011;3582;51.506;11.948;2023-05-19T13:29:20;3.10;;;2.80;;
7080;SDS011;3582;51.506;11.948;2023-05-19T13:31:46;3.50;;;3.20;;
7080;SDS011;3582;51.506;11.948;2023-05-19T13:34:12;7.30;;;3.23;;
7080;SDS011;3582;51.506;11.948;2023-05-19T13:36:38;2.87;;;2.70;;
7080;SDS011;3582;51.506;11.948;2023-05-19T13:39:05;5.13;;;2.63;;
7080;SDS011;3582;51.506;11.948;2023-05-19T13:41:31;5.40;;;2.80;;
7080;SDS011;3582;51.506;11.948;2023-05-19T13:43:57;4.33;;;4.03;;
7080;SDS011;3582;51.506;11.948;2023-05-19T13:46:23;2.30;;;1.93;;
7080;SDS011;3582;51.506;11.948;2023-05-19T13:48:50;2.67;;;2.47;;
7080;SDS011;3582;51.506;11.948;2023-05-19T13:51:15;3.47;;;2.73;;
7080;SDS011;3582;51.506;11.948;2023-05-19T13:53:41;2.40;;;2.20;;
7080;SDS011;3582;51.506;11.948;2023-05-19T13:56:07;4.37;;;2.97;;
7080;SDS011;3582;51.506;11.948;2023-05-19T13:58:33;2.63;;;2.43;;
7080;SDS011;3582;51.506;11.948;2023-05-19T14:00:59;4.20;;;2.83;;
7080;SDS011;3582;51.506;11.948;2023-05-19T14:03:25;2.90;;;2.70;;
7080;SDS011;3582;51.506;11.948;2023-05-19T14:05:51;3.23;;;2.93;;
7080;SDS011;3582;51.506;11.948;2023-05-19T14:08:17;6.03;;;3.90;;
7080;SDS011;3582;51.506;11.948;2023-05-19T14:10:46;4.07;;;2.90;;
7080;SDS011;3582;51.506;11.948;2023-05-19T14:13:13;5.87;;;2.97;;
7080;SDS011;3582;51.506;11.948;2023-05-19T14:15:38;3.97;;;3.00;;
7080;SDS011;3582;51.506;11.948;2023-05-19T14:18:05;3.30;;;2.80;;
7080;SDS011;3582;51.506;11.948;2023-05-19T14:20:31;3.90;;;2.43;;
7080;SDS011;3582;51.506;11.948;2023-05-19T14:22:56;3.50;;;2.53;;
7080;SDS011;3582;51.506;11.948;2023-05-19T14:25:22;3.90;;;3.40;;
7080;SDS011;3582;51.506;11.948;2023-05-19T14:27:48;2.73;;;2.53;;
7080;SDS011;3582;51.506;11.948;2023-05-19T14:30:14;4.73;;;2.90;;
7080;SDS011;3582;51.506;11.948;2023-05-19T14:32:40;3.67;;;3.37;;
7080;SDS011;3582;51.506;11.948;2023-05-19T14:35:06;3.40;;;2.80;;
7080;SDS011;3582;51.506;11.948;2023-05-19T14:37:32;3.50;;;3.20;;
7080;SDS011;3582;51.506;11.948;2023-05-19T14:39:58;3.07;;;2.60;;
7080;SDS011;3582;51.506;11.948;2023-05-19T14:42:24;3.53;;;3.03;;
7080;SDS011;3582;51.506;11.948;2023-05-19T14:44:50;2.90;;;2.70;;
7080;SDS011;3582;51.506;11.948;2023-05-19T14:47:16;4.23;;;3.37;;
7080;SDS011;3582;51.506;11.948;2023-05-19T14:49:42;4.53;;;3.77;;
7080;SDS011;3582;51.506;11.948;2023-05-19T14:52:08;2.80;;;2.60;;
7080;SDS011;3582;51.506;11.948;2023-05-19T14:54:34;6.43;;;3.30;;
7080;SDS011;3582;51.506;11.948;2023-05-19T14:57:00;2.90;;;2.70;;
7080;SDS011;3582;51.506;11.948;2023-05-19T14:59:26;3.50;;;3.20;;
7080;SDS011;3582;51.506;11.948;2023-05-19T15:01:53;3.13;;;2.83;;
7080;SDS011;3582;51.506;11.948;2023-05-19T15:04:19;3.17;;;2.87;;
7080;SDS011;3582;51.506;11.948;2023-05-19T15:06:45;3.40;;;3.10;;
7080;SDS011;3582;51.506;11.948;2023-05-19T15:09:11;5.80;;;3.43;;
7080;SDS011;3582;51.506;11.948;2023-05-19T15:11:38;4.30;;;2.83;;
7080;SDS011;3582;51.506;11.948;2023-05-19T15:14:04;4.07;;;2.97;;
7080;SDS011;3582;51.506;11.948;2023-05-19T15:16:30;5.20;;;3.10;;
7080;SDS011;3582;51.506;11.948;2023-05-19T15:18:56;5.70;;;2.13;;
7080;SDS011;3582;51.506;11.948;2023-05-19T15:21:22;5.50;;;2.67;;
7080;SDS011;3582;51.506;11.948;2023-05-19T15:23:48;3.20;;;2.87;;
7080;SDS011;3582;51.506;11.948;2023-05-19T15:26:14;6.33;;;3.90;;
7080;SDS011;3582;51.506;11.948;2023-05-19T15:28:40;4.40;;;3.07;;